Davenport, CA

11:19 PM PDT on July 29, 2016 (GMT -0700)
Big Creek Rd | | Change Station

Elev 184 ft 37.07 °N, 122.22 °W | Updated 3 seconds ago

Overcast
Overcast
52.7 °F
Feels Like 52.7 °F
N
0.0
Wind Variable Wind from North
Gusts 0.0 mph

Today
High -- | Low -- °F
--% Chance of Precip.
Yesterday
High -- | Low -- °F
Precip. -- in
Pressure 29.84 in
Visibility 9.0 miles
Clouds Overcast 300 ft
Dew Point 52 °F
Humidity 98%
Rainfall 0.00 in
Snow Depth Not available.
6:12 AM 8:18 PM
Waning Crescent, 16% visible
METAR KWVI 300553Z AUTO 00000KT 9SM OVC003 13/12 A2984 RMK AO2 SLP104 T01280122 10172 20122 50002
Pressure 29.84 in
Visibility 9.0 miles
Clouds Overcast 300 ft
Dew Point 52 °F
Humidity 98%
Rainfall 0.00 in
Snow Depth Not available.
6:12 AM 8:18 PM
Waning Crescent, 16% visible
METAR KWVI 300553Z AUTO 00000KT 9SM OVC003 13/12 A2984 RMK AO2 SLP104 T01280122 10172 20122 50002

10-Day Weather Forecast

Almanac

Astronomy

Jul. 29, 2016 Rise Set
Actual Time
Civil Twilight
Nautical Twilight
Astronomical Twilight
Moon
Length of Visible Light
Length of Day
Tomorrow will be .
, % of the Moon is Illuminated

Today's Extremes

State Highs State Lows

Community

WunderPhotos

Upload Photos

1,928,508 photos uploaded!

WunderBlog® & News

Nearby

Air Quality

  Air Quality AQ Index Pollutant
Not available.

Snow Depth

Station Depth Elevation

Earthquake Activity

City Distance Mag. Time & Date
Minimum magnitude displayed is 2.5.

Coastal Water Temperatures

Place Temperature

Stations

Nearby Weather Stations

Station Location Temp. Windchill Dew Point Humidity Wind Precip. Elev Updated Type
                   

Watches & Warnings

There are currently no watches in effect.